sensor_id;sensor_type;location;lat;lon;timestamp;temperature;humidity
28336;DHT22;15592;53.656;7.276;2022-07-21T00:01:18;20.20;99.90
28336;DHT22;15592;53.656;7.276;2022-07-21T00:03:43;20.20;99.90
28336;DHT22;15592;53.656;7.276;2022-07-21T00:06:09;20.20;99.90
28336;DHT22;15592;53.656;7.276;2022-07-21T00:08:35;20.10;99.90
28336;DHT22;15592;53.656;7.276;2022-07-21T00:11:00;20.10;99.90
28336;DHT22;15592;53.656;7.276;2022-07-21T00:13:26;20.10;99.90
28336;DHT22;15592;53.656;7.276;2022-07-21T00:15:52;20.20;99.90
28336;DHT22;15592;53.656;7.276;2022-07-21T00:18:18;20.20;99.90
28336;DHT22;15592;53.656;7.276;2022-07-21T00:20:44;20.20;99.90
28336;DHT22;15592;53.656;7.276;2022-07-21T00:23:10;20.20;99.90
28336;DHT22;15592;53.656;7.276;2022-07-21T00:25:36;20.20;99.90
28336;DHT22;15592;53.656;7.276;2022-07-21T00:28:03;20.30;99.90
28336;DHT22;15592;53.656;7.276;2022-07-21T00:30:29;20.20;99.90
28336;DHT22;15592;53.656;7.276;2022-07-21T00:32:55;20.30;99.90
28336;DHT22;15592;53.656;7.276;2022-07-21T00:35:20;20.20;99.90
28336;DHT22;15592;53.656;7.276;2022-07-21T00:37:46;20.20;99.90
28336;DHT22;15592;53.656;7.276;2022-07-21T00:40:12;20.20;99.90
28336;DHT22;15592;53.656;7.276;2022-07-21T00:42:39;20.30;99.90
28336;DHT22;15592;53.656;7.276;2022-07-21T00:45:07;20.20;99.90
28336;DHT22;15592;53.656;7.276;2022-07-21T00:47:33;20.20;99.90
28336;DHT22;15592;53.656;7.276;2022-07-21T00:50:03;20.20;99.90
28336;DHT22;15592;53.656;7.276;2022-07-21T00:52:29;20.20;99.90
28336;DHT22;15592;53.656;7.276;2022-07-21T00:54:54;20.20;99.90
28336;DHT22;15592;53.656;7.276;2022-07-21T00:57:20;20.20;99.90
28336;DHT22;15592;53.656;7.276;2022-07-21T00:59:46;20.20;99.90
28336;DHT22;15592;53.656;7.276;2022-07-21T01:02:12;20.20;99.90
28336;DHT22;15592;53.656;7.276;2022-07-21T01:04:38;20.20;99.90
28336;DHT22;15592;53.656;7.276;2022-07-21T01:07:05;20.20;99.90
28336;DHT22;15592;53.656;7.276;2022-07-21T01:09:32;20.30;99.90
28336;DHT22;15592;53.656;7.276;2022-07-21T01:11:58;20.30;99.90
28336;DHT22;15592;53.656;7.276;2022-07-21T01:14:24;20.30;99.90
28336;DHT22;15592;53.656;7.276;2022-07-21T01:16:51;20.30;99.90
28336;DHT22;15592;53.656;7.276;2022-07-21T01:19:16;20.30;99.90
28336;DHT22;15592;53.656;7.276;2022-07-21T01:21:45;20.30;99.90
28336;DHT22;15592;53.656;7.276;2022-07-21T01:24:11;20.30;99.90
28336;DHT22;15592;53.656;7.276;2022-07-21T01:26:45;20.30;99.90
28336;DHT22;15592;53.656;7.276;2022-07-21T01:29:11;20.30;99.90
28336;DHT22;15592;53.656;7.276;2022-07-21T01:31:39;20.30;99.90
28336;DHT22;15592;53.656;7.276;2022-07-21T01:34:05;20.30;99.90
28336;DHT22;15592;53.656;7.276;2022-07-21T01:36:30;20.30;99.90
28336;DHT22;15592;53.656;7.276;2022-07-21T01:38:56;20.30;99.90
28336;DHT22;15592;53.656;7.276;2022-07-21T01:41:40;20.30;99.90
28336;DHT22;15592;53.656;7.276;2022-07-21T01:44:09;20.30;99.90
28336;DHT22;15592;53.656;7.276;2022-07-21T01:46:37;20.30;99.90
28336;DHT22;15592;53.656;7.276;2022-07-21T01:49:04;20.20;99.90
28336;DHT22;15592;53.656;7.276;2022-07-21T01:51:30;20.10;99.90
28336;DHT22;15592;53.656;7.276;2022-07-21T01:53:56;20.00;99.90
28336;DHT22;15592;53.656;7.276;2022-07-21T01:56:23;20.00;99.90
28336;DHT22;15592;53.656;7.276;2022-07-21T01:58:53;19.90;99.90
28336;DHT22;15592;53.656;7.276;2022-07-21T02:01:20;19.80;99.90
28336;DHT22;15592;53.656;7.276;2022-07-21T02:03:47;19.80;99.90
28336;DHT22;15592;53.656;7.276;2022-07-21T02:06:12;19.70;99.90
28336;DHT22;15592;53.656;7.276;2022-07-21T02:08:38;19.60;99.90
28336;DHT22;15592;53.656;7.276;2022-07-21T02:11:06;19.60;99.90
28336;DHT22;15592;53.656;7.276;2022-07-21T02:13:31;19.60;99.90
28336;DHT22;15592;53.656;7.276;2022-07-21T02:15:58;19.60;99.90
28336;DHT22;15592;53.656;7.276;2022-07-21T02:18:23;19.60;99.90
28336;DHT22;15592;53.656;7.276;2022-07-21T02:20:49;19.60;99.90
28336;DHT22;15592;53.656;7.276;2022-07-21T02:23:16;19.50;99.90
28336;DHT22;15592;53.656;7.276;2022-07-21T02:25:42;19.50;99.90
28336;DHT22;15592;53.656;7.276;2022-07-21T02:28:08;19.50;99.90
28336;DHT22;15592;53.656;7.276;2022-07-21T02:30:33;19.40;99.90
28336;DHT22;15592;53.656;7.276;2022-07-21T02:32:59;19.30;99.90
28336;DHT22;15592;53.656;7.276;2022-07-21T02:35:24;19.30;99.90
28336;DHT22;15592;53.656;7.276;2022-07-21T02:37:50;19.30;99.90
28336;DHT22;15592;53.656;7.276;2022-07-21T02:40:16;19.30;99.90
28336;DHT22;15592;53.656;7.276;2022-07-21T02:42:42;19.30;99.90
28336;DHT22;15592;53.656;7.276;2022-07-21T02:45:08;19.30;99.90
28336;DHT22;15592;53.656;7.276;2022-07-21T02:48:26;19.30;99.90
28336;DHT22;15592;53.656;7.276;2022-07-21T02:50:45;19.40;99.90
28336;DHT22;15592;53.656;7.276;2022-07-21T02:53:16;19.40;99.90
28336;DHT22;15592;53.656;7.276;2022-07-21T02:55:48;19.40;99.90
28336;DHT22;15592;53.656;7.276;2022-07-21T02:58:16;19.40;99.90
28336;DHT22;15592;53.656;7.276;2022-07-21T03:00:49;19.40;99.90
28336;DHT22;15592;53.656;7.276;2022-07-21T03:03:15;19.40;99.90
28336;DHT22;15592;53.656;7.276;2022-07-21T03:05:41;19.40;99.90
28336;DHT22;15592;53.656;7.276;2022-07-21T03:08:08;19.50;99.90
28336;DHT22;15592;53.656;7.276;2022-07-21T03:10:35;19.40;99.90
28336;DHT22;15592;53.656;7.276;2022-07-21T03:13:01;19.40;99.90
28336;DHT22;15592;53.656;7.276;2022-07-21T03:15:27;19.40;99.90
28336;DHT22;15592;53.656;7.276;2022-07-21T03:17:53;19.50;99.90
28336;DHT22;15592;53.656;7.276;2022-07-21T03:20:21;19.50;99.90
28336;DHT22;15592;53.656;7.276;2022-07-21T03:22:47;19.50;99.90
28336;DHT22;15592;53.656;7.276;2022-07-21T03:25:12;19.50;99.90
28336;DHT22;15592;53.656;7.276;2022-07-21T03:27:38;19.40;99.90
28336;DHT22;15592;53.656;7.276;2022-07-21T03:30:06;19.50;99.90
28336;DHT22;15592;53.656;7.276;2022-07-21T03:32:32;19.50;99.90
28336;DHT22;15592;53.656;7.276;2022-07-21T03:34:58;19.40;99.90
28336;DHT22;15592;53.656;7.276;2022-07-21T03:37:24;19.50;99.90
28336;DHT22;15592;53.656;7.276;2022-07-21T03:39:50;19.40;99.90
28336;DHT22;15592;53.656;7.276;2022-07-21T03:42:16;19.40;99.90
28336;DHT22;15592;53.656;7.276;2022-07-21T03:44:41;19.40;99.90
28336;DHT22;15592;53.656;7.276;2022-07-21T03:47:07;19.40;99.90
28336;DHT22;15592;53.656;7.276;2022-07-21T03:49:33;19.40;99.90
28336;DHT22;15592;53.656;7.276;2022-07-21T03:51:58;19.40;99.90
28336;DHT22;15592;53.656;7.276;2022-07-21T03:54:24;19.40;99.90
28336;DHT22;15592;53.656;7.276;2022-07-21T03:56:49;19.40;99.90
28336;DHT22;15592;53.656;7.276;2022-07-21T03:59:15;19.40;99.90
28336;DHT22;15592;53.656;7.276;2022-07-21T04:01:41;19.30;99.90
28336;DHT22;15592;53.656;7.276;2022-07-21T04:04:06;19.30;99.90
28336;DHT22;15592;53.656;7.276;2022-07-21T04:06:32;19.30;99.90
28336;DHT22;15592;53.656;7.276;2022-07-21T04:08:57;19.30;99.90
28336;DHT22;15592;53.656;7.276;2022-07-21T04:11:23;19.30;99.90
28336;DHT22;15592;53.656;7.276;2022-07-21T04:13:49;19.30;99.90
28336;DHT22;15592;53.656;7.276;2022-07-21T04:16:14;19.30;99.90
28336;DHT22;15592;53.656;7.276;2022-07-21T04:18:41;19.30;99.90
28336;DHT22;15592;53.656;7.276;2022-07-21T04:21:06;19.30;99.90
28336;DHT22;15592;53.656;7.276;2022-07-21T04:23:32;19.40;99.90
28336;DHT22;15592;53.656;7.276;2022-07-21T04:25:58;19.40;99.90
28336;DHT22;15592;53.656;7.276;2022-07-21T04:28:23;19.40;99.90
28336;DHT22;15592;53.656;7.276;2022-07-21T04:30:49;19.30;99.90
28336;DHT22;15592;53.656;7.276;2022-07-21T04:33:15;19.30;99.90
28336;DHT22;15592;53.656;7.276;2022-07-21T04:35:40;19.30;99.90
28336;DHT22;15592;53.656;7.276;2022-07-21T04:38:08;19.30;99.90
28336;DHT22;15592;53.656;7.276;2022-07-21T04:40:34;19.30;99.90
28336;DHT22;15592;53.656;7.276;2022-07-21T04:42:59;19.30;99.90
28336;DHT22;15592;53.656;7.276;2022-07-21T04:45:25;19.30;99.90
28336;DHT22;15592;53.656;7.276;2022-07-21T04:47:53;19.30;99.90
28336;DHT22;15592;53.656;7.276;2022-07-21T04:50:22;19.30;99.90
28336;DHT22;15592;53.656;7.276;2022-07-21T04:52:48;19.20;99.90
28336;DHT22;15592;53.656;7.276;2022-07-21T04:55:15;19.20;99.90
28336;DHT22;15592;53.656;7.276;2022-07-21T04:57:47;19.20;99.90
28336;DHT22;15592;53.656;7.276;2022-07-21T05:00:15;19.20;99.90
28336;DHT22;15592;53.656;7.276;2022-07-21T05:02:41;19.20;99.90
28336;DHT22;15592;53.656;7.276;2022-07-21T05:05:08;19.20;99.90
28336;DHT22;15592;53.656;7.276;2022-07-21T05:07:34;19.20;99.90
28336;DHT22;15592;53.656;7.276;2022-07-21T05:10:02;19.10;99.90
28336;DHT22;15592;53.656;7.276;2022-07-21T05:12:28;19.20;99.90
28336;DHT22;15592;53.656;7.276;2022-07-21T05:14:54;19.20;99.90
28336;DHT22;15592;53.656;7.276;2022-07-21T05:17:19;19.10;99.90
28336;DHT22;15592;53.656;7.276;2022-07-21T05:19:45;19.10;99.90
28336;DHT22;15592;53.656;7.276;2022-07-21T05:22:16;19.10;99.90
28336;DHT22;15592;53.656;7.276;2022-07-21T05:24:41;19.10;99.90
28336;DHT22;15592;53.656;7.276;2022-07-21T05:27:07;19.10;99.90
28336;DHT22;15592;53.656;7.276;2022-07-21T05:29:32;19.10;99.90
28336;DHT22;15592;53.656;7.276;2022-07-21T05:31:58;19.00;99.90
28336;DHT22;15592;53.656;7.276;2022-07-21T05:34:24;19.00;99.90
28336;DHT22;15592;53.656;7.276;2022-07-21T05:36:49;19.00;99.90
28336;DHT22;15592;53.656;7.276;2022-07-21T05:39:15;19.00;99.90
28336;DHT22;15592;53.656;7.276;2022-07-21T05:41:41;19.00;99.90
28336;DHT22;15592;53.656;7.276;2022-07-21T05:44:06;19.10;99.90
28336;DHT22;15592;53.656;7.276;2022-07-21T05:46:32;19.10;99.90
28336;DHT22;15592;53.656;7.276;2022-07-21T05:48:57;19.10;99.90
28336;DHT22;15592;53.656;7.276;2022-07-21T05:51:23;19.10;99.90
28336;DHT22;15592;53.656;7.276;2022-07-21T05:53:48;19.10;99.90
28336;DHT22;15592;53.656;7.276;2022-07-21T05:56:14;19.10;99.90
28336;DHT22;15592;53.656;7.276;2022-07-21T05:58:40;19.10;99.90
28336;DHT22;15592;53.656;7.276;2022-07-21T06:01:05;19.20;99.90
28336;DHT22;15592;53.656;7.276;2022-07-21T06:03:38;19.10;99.90
28336;DHT22;15592;53.656;7.276;2022-07-21T06:06:05;19.20;99.90
28336;DHT22;15592;53.656;7.276;2022-07-21T06:08:30;19.20;99.90
28336;DHT22;15592;53.656;7.276;2022-07-21T06:10:56;19.20;99.90
28336;DHT22;15592;53.656;7.276;2022-07-21T06:13:22;19.30;99.90
28336;DHT22;15592;53.656;7.276;2022-07-21T06:15:48;19.30;99.90
28336;DHT22;15592;53.656;7.276;2022-07-21T06:18:13;19.30;99.90
28336;DHT22;15592;53.656;7.276;2022-07-21T06:20:41;19.30;99.90
28336;DHT22;15592;53.656;7.276;2022-07-21T06:23:07;19.30;99.90
28336;DHT22;15592;53.656;7.276;2022-07-21T06:25:32;19.30;99.90
28336;DHT22;15592;53.656;7.276;2022-07-21T06:27:58;19.30;99.90
28336;DHT22;15592;53.656;7.276;2022-07-21T06:30:24;19.30;99.90
28336;DHT22;15592;53.656;7.276;2022-07-21T06:32:50;19.30;99.90
28336;DHT22;15592;53.656;7.276;2022-07-21T06:35:15;19.30;99.90
28336;DHT22;15592;53.656;7.276;2022-07-21T06:37:45;19.40;99.90
28336;DHT22;15592;53.656;7.276;2022-07-21T06:40:12;19.40;99.90
28336;DHT22;15592;53.656;7.276;2022-07-21T06:42:38;19.40;99.90
28336;DHT22;15592;53.656;7.276;2022-07-21T06:45:05;19.40;99.90
28336;DHT22;15592;53.656;7.276;2022-07-21T06:47:30;19.40;99.90
28336;DHT22;15592;53.656;7.276;2022-07-21T06:49:56;19.40;99.90
28336;DHT22;15592;53.656;7.276;2022-07-21T06:52:27;19.40;99.90
28336;DHT22;15592;53.656;7.276;2022-07-21T06:54:53;19.40;99.90
28336;DHT22;15592;53.656;7.276;2022-07-21T06:57:19;19.50;99.90
28336;DHT22;15592;53.656;7.276;2022-07-21T06:59:44;19.60;99.90
28336;DHT22;15592;53.656;7.276;2022-07-21T07:02:10;19.60;99.90
28336;DHT22;15592;53.656;7.276;2022-07-21T07:04:35;19.70;99.90
28336;DHT22;15592;53.656;7.276;2022-07-21T07:07:01;19.80;99.90
28336;DHT22;15592;53.656;7.276;2022-07-21T07:09:27;19.90;99.90
28336;DHT22;15592;53.656;7.276;2022-07-21T07:11:52;19.90;99.90
28336;DHT22;15592;53.656;7.276;2022-07-21T07:14:19;20.00;99.90
28336;DHT22;15592;53.656;7.276;2022-07-21T07:16:46;20.00;99.90
28336;DHT22;15592;53.656;7.276;2022-07-21T07:19:12;20.10;99.90
28336;DHT22;15592;53.656;7.276;2022-07-21T07:21:37;20.10;99.90
28336;DHT22;15592;53.656;7.276;2022-07-21T07:24:03;20.10;99.90
28336;DHT22;15592;53.656;7.276;2022-07-21T07:26:30;20.20;99.90
28336;DHT22;15592;53.656;7.276;2022-07-21T07:28:55;20.20;99.90
28336;DHT22;15592;53.656;7.276;2022-07-21T07:31:21;20.20;99.90
28336;DHT22;15592;53.656;7.276;2022-07-21T07:33:47;20.30;99.90
28336;DHT22;15592;53.656;7.276;2022-07-21T07:36:12;20.40;99.90
28336;DHT22;15592;53.656;7.276;2022-07-21T07:38:39;20.50;99.90
28336;DHT22;15592;53.656;7.276;2022-07-21T07:41:05;20.50;99.90
28336;DHT22;15592;53.656;7.276;2022-07-21T07:43:30;20.50;99.90
28336;DHT22;15592;53.656;7.276;2022-07-21T07:45:56;20.40;99.90
28336;DHT22;15592;53.656;7.276;2022-07-21T07:48:22;20.40;99.90
28336;DHT22;15592;53.656;7.276;2022-07-21T07:50:47;20.40;99.90
28336;DHT22;15592;53.656;7.276;2022-07-21T07:53:13;20.40;99.90
28336;DHT22;15592;53.656;7.276;2022-07-21T07:55:38;20.30;99.90
28336;DHT22;15592;53.656;7.276;2022-07-21T07:58:04;20.30;99.90
28336;DHT22;15592;53.656;7.276;2022-07-21T08:00:30;20.30;99.90
28336;DHT22;15592;53.656;7.276;2022-07-21T08:02:55;20.30;99.90
28336;DHT22;15592;53.656;7.276;2022-07-21T08:05:21;20.30;99.90
28336;DHT22;15592;53.656;7.276;2022-07-21T08:07:47;20.40;99.90
28336;DHT22;15592;53.656;7.276;2022-07-21T08:10:13;20.40;99.90
28336;DHT22;15592;53.656;7.276;2022-07-21T08:12:39;20.40;99.90
28336;DHT22;15592;53.656;7.276;2022-07-21T08:15:06;20.40;99.90
28336;DHT22;15592;53.656;7.276;2022-07-21T08:17:35;20.40;99.90
28336;DHT22;15592;53.656;7.276;2022-07-21T08:20:00;20.40;99.90
28336;DHT22;15592;53.656;7.276;2022-07-21T08:22:26;20.40;99.90
28336;DHT22;15592;53.656;7.276;2022-07-21T08:24:52;20.50;99.90
28336;DHT22;15592;53.656;7.276;2022-07-21T08:27:17;20.50;99.90
28336;DHT22;15592;53.656;7.276;2022-07-21T08:29:53;20.60;99.90
28336;DHT22;15592;53.656;7.276;2022-07-21T08:32:19;20.60;99.90
28336;DHT22;15592;53.656;7.276;2022-07-21T08:34:46;20.80;99.90
28336;DHT22;15592;53.656;7.276;2022-07-21T08:37:11;20.80;99.90
28336;DHT22;15592;53.656;7.276;2022-07-21T08:39:37;21.00;99.90
28336;DHT22;15592;53.656;7.276;2022-07-21T08:42:06;21.00;99.90
28336;DHT22;15592;53.656;7.276;2022-07-21T08:44:32;21.00;99.90
28336;DHT22;15592;53.656;7.276;2022-07-21T08:46:58;21.10;99.90
28336;DHT22;15592;53.656;7.276;2022-07-21T08:49:24;21.10;99.90
28336;DHT22;15592;53.656;7.276;2022-07-21T08:51:51;21.10;99.90
28336;DHT22;15592;53.656;7.276;2022-07-21T08:54:19;21.10;99.90
28336;DHT22;15592;53.656;7.276;2022-07-21T08:56:45;21.10;99.90
28336;DHT22;15592;53.656;7.276;2022-07-21T08:59:10;21.20;99.90
28336;DHT22;15592;53.656;7.276;2022-07-21T09:01:36;21.20;99.90
28336;DHT22;15592;53.656;7.276;2022-07-21T09:04:35;21.20;99.90
28336;DHT22;15592;53.656;7.276;2022-07-21T09:07:03;21.10;99.90
28336;DHT22;15592;53.656;7.276;2022-07-21T09:09:31;21.10;99.90
28336;DHT22;15592;53.656;7.276;2022-07-21T09:11:58;21.30;99.90
28336;DHT22;15592;53.656;7.276;2022-07-21T09:14:26;21.40;99.90
28336;DHT22;15592;53.656;7.276;2022-07-21T09:16:54;21.40;99.90
28336;DHT22;15592;53.656;7.276;2022-07-21T09:19:29;21.40;99.90
28336;DHT22;15592;53.656;7.276;2022-07-21T09:22:00;21.40;99.90
28336;DHT22;15592;53.656;7.276;2022-07-21T09:24:27;21.30;99.90
28336;DHT22;15592;53.656;7.276;2022-07-21T09:27:13;21.10;99.90
28336;DHT22;15592;53.656;7.276;2022-07-21T09:29:49;20.90;99.90
28336;DHT22;15592;53.656;7.276;2022-07-21T09:32:23;20.80;99.90
28336;DHT22;15592;53.656;7.276;2022-07-21T09:34:54;20.70;99.90
28336;DHT22;15592;53.656;7.276;2022-07-21T09:37:23;20.60;99.90
28336;DHT22;15592;53.656;7.276;2022-07-21T09:39:52;20.50;99.90
28336;DHT22;15592;53.656;7.276;2022-07-21T09:42:31;20.40;99.90
28336;DHT22;15592;53.656;7.276;2022-07-21T09:44:59;20.40;99.90
28336;DHT22;15592;53.656;7.276;2022-07-21T09:47:28;20.40;99.90
28336;DHT22;15592;53.656;7.276;2022-07-21T09:49:55;20.20;99.90
28336;DHT22;15592;53.656;7.276;2022-07-21T09:52:23;20.20;99.90
28336;DHT22;15592;53.656;7.276;2022-07-21T09:54:53;20.20;99.90
28336;DHT22;15592;53.656;7.276;2022-07-21T09:57:20;20.20;99.90
28336;DHT22;15592;53.656;7.276;2022-07-21T09:59:47;20.30;99.90
28336;DHT22;15592;53.656;7.276;2022-07-21T10:02:27;20.30;99.90
28336;DHT22;15592;53.656;7.276;2022-07-21T10:07:22;20.30;99.90
28336;DHT22;15592;53.656;7.276;2022-07-21T10:09:48;20.40;99.90
28336;DHT22;15592;53.656;7.276;2022-07-21T10:12:15;20.40;99.90
28336;DHT22;15592;53.656;7.276;2022-07-21T10:14:42;20.40;99.90
28336;DHT22;15592;53.656;7.276;2022-07-21T10:17:08;20.40;99.90
28336;DHT22;15592;53.656;7.276;2022-07-21T10:19:51;20.30;99.90
28336;DHT22;15592;53.656;7.276;2022-07-21T10:25:01;20.40;99.90
28336;DHT22;15592;53.656;7.276;2022-07-21T10:27:26;20.40;99.90
28336;DHT22;15592;53.656;7.276;2022-07-21T10:29:57;20.40;99.90
28336;DHT22;15592;53.656;7.276;2022-07-21T10:32:33;20.40;99.90
28336;DHT22;15592;53.656;7.276;2022-07-21T10:35:02;20.40;99.90
28336;DHT22;15592;53.656;7.276;2022-07-21T10:40:50;20.40;99.90
28336;DHT22;15592;53.656;7.276;2022-07-21T10:45:31;20.60;99.90
28336;DHT22;15592;53.656;7.276;2022-07-21T10:47:58;20.60;99.90
28336;DHT22;15592;53.656;7.276;2022-07-21T10:52:59;20.80;99.90
28336;DHT22;15592;53.656;7.276;2022-07-21T10:55:27;20.80;99.90
28336;DHT22;15592;53.656;7.276;2022-07-21T10:58:17;20.80;99.90
28336;DHT22;15592;53.656;7.276;2022-07-21T11:00:45;20.90;99.90
28336;DHT22;15592;53.656;7.276;2022-07-21T11:08:46;21.20;99.90
28336;DHT22;15592;53.656;7.276;2022-07-21T11:11:19;21.20;99.90
28336;DHT22;15592;53.656;7.276;2022-07-21T11:14:09;21.20;99.90
28336;DHT22;15592;53.656;7.276;2022-07-21T11:22:11;21.10;99.90
28336;DHT22;15592;53.656;7.276;2022-07-21T11:24:38;21.20;99.90
28336;DHT22;15592;53.656;7.276;2022-07-21T11:27:12;21.10;99.90
28336;DHT22;15592;53.656;7.276;2022-07-21T11:29:40;21.00;99.90
28336;DHT22;15592;53.656;7.276;2022-07-21T11:32:06;21.10;99.90
28336;DHT22;15592;53.656;7.276;2022-07-21T11:35:04;21.10;99.90
28336;DHT22;15592;53.656;7.276;2022-07-21T11:37:49;21.10;99.90
28336;DHT22;15592;53.656;7.276;2022-07-21T11:40:19;21.20;99.90
28336;DHT22;15592;53.656;7.276;2022-07-21T11:42:47;21.10;99.90
28336;DHT22;15592;53.656;7.276;2022-07-21T11:45:14;21.10;99.90
28336;DHT22;15592;53.656;7.276;2022-07-21T11:47:40;21.00;99.90
28336;DHT22;15592;53.656;7.276;2022-07-21T11:50:11;21.00;99.90
28336;DHT22;15592;53.656;7.276;2022-07-21T11:52:39;21.00;99.90
28336;DHT22;15592;53.656;7.276;2022-07-21T11:55:07;21.00;99.90
28336;DHT22;15592;53.656;7.276;2022-07-21T11:57:33;20.90;99.90
28336;DHT22;15592;53.656;7.276;2022-07-21T12:00:00;20.80;99.90
28336;DHT22;15592;53.656;7.276;2022-07-21T12:02:30;20.70;99.90
28336;DHT22;15592;53.656;7.276;2022-07-21T12:07:35;20.40;99.90
28336;DHT22;15592;53.656;7.276;2022-07-21T12:10:21;20.20;99.90
28336;DHT22;15592;53.656;7.276;2022-07-21T12:12:48;20.20;99.90
28336;DHT22;15592;53.656;7.276;2022-07-21T12:15:23;20.10;99.90
28336;DHT22;15592;53.656;7.276;2022-07-21T12:17:58;20.00;99.90
28336;DHT22;15592;53.656;7.276;2022-07-21T12:20:32;20.00;99.90
28336;DHT22;15592;53.656;7.276;2022-07-21T12:23:00;19.90;99.90
28336;DHT22;15592;53.656;7.276;2022-07-21T12:25:38;19.90;99.90
28336;DHT22;15592;53.656;7.276;2022-07-21T12:28:07;19.80;99.90
28336;DHT22;15592;53.656;7.276;2022-07-21T12:30:46;19.80;99.90
28336;DHT22;15592;53.656;7.276;2022-07-21T12:33:17;19.70;99.90
28336;DHT22;15592;53.656;7.276;2022-07-21T12:36:05;19.60;99.90
28336;DHT22;15592;53.656;7.276;2022-07-21T12:38:39;19.60;99.90
28336;DHT22;15592;53.656;7.276;2022-07-21T12:41:06;19.60;99.90
28336;DHT22;15592;53.656;7.276;2022-07-21T12:43:32;19.60;99.90
28336;DHT22;15592;53.656;7.276;2022-07-21T12:48:30;19.50;99.90
28336;DHT22;15592;53.656;7.276;2022-07-21T12:53:50;19.50;99.90
28336;DHT22;15592;53.656;7.276;2022-07-21T12:56:20;19.50;99.90
28336;DHT22;15592;53.656;7.276;2022-07-21T12:58:48;19.50;99.90
28336;DHT22;15592;53.656;7.276;2022-07-21T13:01:15;19.50;99.90
28336;DHT22;15592;53.656;7.276;2022-07-21T13:03:41;19.40;99.90
28336;DHT22;15592;53.656;7.276;2022-07-21T13:06:07;19.50;99.90
28336;DHT22;15592;53.656;7.276;2022-07-21T13:08:34;19.40;99.90
28336;DHT22;15592;53.656;7.276;2022-07-21T13:11:01;19.40;99.90
28336;DHT22;15592;53.656;7.276;2022-07-21T13:13:27;19.40;99.90
28336;DHT22;15592;53.656;7.276;2022-07-21T13:15:54;19.40;99.90
28336;DHT22;15592;53.656;7.276;2022-07-21T13:18:20;19.40;99.90
28336;DHT22;15592;53.656;7.276;2022-07-21T13:20:48;19.40;99.90
28336;DHT22;15592;53.656;7.276;2022-07-21T13:23:14;19.40;99.90
28336;DHT22;15592;53.656;7.276;2022-07-21T13:25:40;19.40;99.90
28336;DHT22;15592;53.656;7.276;2022-07-21T13:28:05;19.50;99.90
28336;DHT22;15592;53.656;7.276;2022-07-21T13:30:31;19.50;99.90
28336;DHT22;15592;53.656;7.276;2022-07-21T13:32:57;19.50;99.90
28336;DHT22;15592;53.656;7.276;2022-07-21T13:35:22;19.50;99.90
28336;DHT22;15592;53.656;7.276;2022-07-21T13:37:48;19.50;99.90
28336;DHT22;15592;53.656;7.276;2022-07-21T13:40:13;19.50;99.90
28336;DHT22;15592;53.656;7.276;2022-07-21T13:42:39;19.50;99.90
28336;DHT22;15592;53.656;7.276;2022-07-21T13:45:05;19.50;99.90
28336;DHT22;15592;53.656;7.276;2022-07-21T13:47:33;19.50;99.90
28336;DHT22;15592;53.656;7.276;2022-07-21T13:49:59;19.50;99.90
28336;DHT22;15592;53.656;7.276;2022-07-21T13:52:25;19.50;99.90
28336;DHT22;15592;53.656;7.276;2022-07-21T13:54:50;19.50;99.90
28336;DHT22;15592;53.656;7.276;2022-07-21T13:57:16;19.60;99.90
28336;DHT22;15592;53.656;7.276;2022-07-21T13:59:41;19.60;99.90
28336;DHT22;15592;53.656;7.276;2022-07-21T14:02:08;19.60;99.90
28336;DHT22;15592;53.656;7.276;2022-07-21T14:04:34;19.50;99.90
28336;DHT22;15592;53.656;7.276;2022-07-21T14:07:03;19.60;99.90
28336;DHT22;15592;53.656;7.276;2022-07-21T14:10:06;19.60;99.90
28336;DHT22;15592;53.656;7.276;2022-07-21T14:12:35;19.50;99.90
28336;DHT22;15592;53.656;7.276;2022-07-21T14:15:03;19.50;99.90
28336;DHT22;15592;53.656;7.276;2022-07-21T14:17:29;19.50;99.90
28336;DHT22;15592;53.656;7.276;2022-07-21T14:20:19;19.50;99.90
28336;DHT22;15592;53.656;7.276;2022-07-21T14:22:45;19.50;99.90
28336;DHT22;15592;53.656;7.276;2022-07-21T14:25:10;19.60;99.90
28336;DHT22;15592;53.656;7.276;2022-07-21T14:27:47;19.60;99.90
28336;DHT22;15592;53.656;7.276;2022-07-21T14:30:13;19.70;99.90
28336;DHT22;15592;53.656;7.276;2022-07-21T14:32:39;19.80;99.90
28336;DHT22;15592;53.656;7.276;2022-07-21T14:35:05;19.90;99.90
28336;DHT22;15592;53.656;7.276;2022-07-21T14:37:31;20.00;99.90
28336;DHT22;15592;53.656;7.276;2022-07-21T14:40:00;20.10;99.90
28336;DHT22;15592;53.656;7.276;2022-07-21T14:42:25;20.20;99.90
28336;DHT22;15592;53.656;7.276;2022-07-21T14:44:51;20.20;99.90
28336;DHT22;15592;53.656;7.276;2022-07-21T14:47:16;20.20;99.90
28336;DHT22;15592;53.656;7.276;2022-07-21T14:49:42;20.30;99.90
28336;DHT22;15592;53.656;7.276;2022-07-21T14:52:08;20.30;99.90
28336;DHT22;15592;53.656;7.276;2022-07-21T14:54:35;20.30;99.90
28336;DHT22;15592;53.656;7.276;2022-07-21T14:57:01;20.20;99.90
28336;DHT22;15592;53.656;7.276;2022-07-21T14:59:27;20.20;99.90
28336;DHT22;15592;53.656;7.276;2022-07-21T15:01:52;20.20;99.90
28336;DHT22;15592;53.656;7.276;2022-07-21T15:04:18;20.20;99.90
28336;DHT22;15592;53.656;7.276;2022-07-21T15:06:46;20.20;99.90
28336;DHT22;15592;53.656;7.276;2022-07-21T15:09:12;20.20;99.90
28336;DHT22;15592;53.656;7.276;2022-07-21T15:11:37;20.30;99.90
28336;DHT22;15592;53.656;7.276;2022-07-21T15:14:03;20.30;99.90
28336;DHT22;15592;53.656;7.276;2022-07-21T15:16:29;20.20;99.90
28336;DHT22;15592;53.656;7.276;2022-07-21T15:18:55;20.30;99.90
28336;DHT22;15592;53.656;7.276;2022-07-21T15:21:20;20.30;99.90
28336;DHT22;15592;53.656;7.276;2022-07-21T15:23:46;20.30;99.90
28336;DHT22;15592;53.656;7.276;2022-07-21T15:26:12;20.30;99.90
28336;DHT22;15592;53.656;7.276;2022-07-21T15:28:37;20.30;99.90
28336;DHT22;15592;53.656;7.276;2022-07-21T15:31:03;20.30;99.90
28336;DHT22;15592;53.656;7.276;2022-07-21T15:33:29;20.30;99.90
28336;DHT22;15592;53.656;7.276;2022-07-21T15:35:54;20.20;99.90
28336;DHT22;15592;53.656;7.276;2022-07-21T15:38:21;20.30;99.90
28336;DHT22;15592;53.656;7.276;2022-07-21T15:40:47;20.30;99.90
28336;DHT22;15592;53.656;7.276;2022-07-21T15:43:13;20.20;99.90
28336;DHT22;15592;53.656;7.276;2022-07-21T15:45:39;20.20;99.90
28336;DHT22;15592;53.656;7.276;2022-07-21T15:48:06;20.20;99.90
28336;DHT22;15592;53.656;7.276;2022-07-21T15:50:32;20.20;99.90
28336;DHT22;15592;53.656;7.276;2022-07-21T15:52:58;20.10;99.90
28336;DHT22;15592;53.656;7.276;2022-07-21T15:55:24;20.10;99.90
28336;DHT22;15592;53.656;7.276;2022-07-21T15:57:49;20.00;99.90
28336;DHT22;15592;53.656;7.276;2022-07-21T16:00:16;19.90;99.90
28336;DHT22;15592;53.656;7.276;2022-07-21T16:02:43;19.90;99.90
28336;DHT22;15592;53.656;7.276;2022-07-21T16:05:14;19.90;99.90